Time;durP1;ratioP1;P1;durP2;ratioP2;P2;SDS_P1;SDS_P2;PMS_P1;PMS_P2;Temp;Humidity;BMP_temperature;BMP_pressure;BME280_temperature;BME280_humidity;BME280_pressure;Samples;Min_cycle;Max_cycle;Signal;HPM_P1;HPM_P2
2022/04/22 00:01:05;;;;;;;4.32;3.40;;;14.30;99.90;;;;;;5033312;28;20176;-81
2022/04/22 00:03:31;;;;;;;8.15;3.53;;;14.20;99.90;;;;;;5048476;28;20170;-80
2022/04/22 00:05:56;;;;;;;7.45;3.85;;;14.20;99.90;;;;;;5033179;28;20620;-81
2022/04/22 00:08:23;;;;;;;7.40;3.70;;;14.10;99.90;;;;;;5032900;28;20179;-80
2022/04/22 00:13:32;;;;;;;4.22;3.75;;;14.00;99.90;;;;;;5032886;28;20256;-81
2022/04/22 00:15:58;;;;;;;8.18;3.60;;;13.90;99.90;;;;;;5032763;28;20179;-84
2022/04/22 00:18:23;;;;;;;8.23;3.75;;;13.90;99.90;;;;;;5032927;28;20210;-80
2022/04/22 00:20:49;;;;;;;4.65;3.63;;;13.80;99.90;;;;;;5036483;28;20175;-83
2022/04/22 00:23:14;;;;;;;3.92;3.58;;;13.80;99.90;;;;;;5039321;28;20168;-83
2022/04/22 00:25:40;;;;;;;4.03;3.15;;;13.70;99.90;;;;;;5039625;28;20533;-80
2022/04/22 00:28:06;;;;;;;6.28;3.88;;;13.60;99.90;;;;;;5039425;28;20174;-85
2022/04/22 00:30:32;;;;;;;9.02;3.42;;;13.40;99.90;;;;;;5039534;28;20167;-82
2022/04/22 00:32:57;;;;;;;8.57;3.72;;;13.50;99.90;;;;;;5039379;28;20175;-84
2022/04/22 00:35:23;;;;;;;8.57;4.28;;;13.40;99.90;;;;;;5039578;28;20194;-83
2022/04/22 00:37:49;;;;;;;8.85;4.55;;;13.30;99.90;;;;;;5039562;28;20278;-80
2022/04/22 00:40:15;;;;;;;5.32;3.40;;;13.30;99.90;;;;;;5039186;28;20168;-80
2022/04/22 00:42:41;;;;;;;10.73;4.10;;;13.20;99.90;;;;;;5039382;28;20171;-86
2022/04/22 00:45:09;;;;;;;8.57;3.95;;;13.20;99.90;;;;;;5039205;28;20186;-81
2022/04/22 00:47:35;;;;;;;9.63;3.55;;;13.00;99.90;;;;;;5039719;28;20171;-84
2022/04/22 00:50:00;;;;;;;4.95;4.07;;;13.00;99.90;;;;;;5039360;28;20174;-80
2022/04/22 00:52:27;;;;;;;4.07;3.67;;;13.00;99.90;;;;;;5039008;28;20168;-81
2022/04/22 00:54:53;;;;;;;5.22;4.07;;;13.00;99.90;;;;;;5039113;28;20183;-81
2022/04/22 00:57:19;;;;;;;4.55;3.33;;;12.90;99.90;;;;;;5039145;28;20642;-82
2022/04/22 00:59:46;;;;;;;10.48;4.38;;;12.90;99.90;;;;;;5039184;28;20714;-83
2022/04/22 01:02:12;;;;;;;8.80;4.78;;;12.70;99.90;;;;;;5039361;28;20781;-83
2022/04/22 01:10:08;;;;;;;3.60;3.30;;;12.80;99.90;;;;;;5038020;28;20230;-82
2022/04/22 01:12:33;;;;;;;4.63;3.95;;;12.70;99.90;;;;;;5039095;28;20616;-84
2022/04/22 01:14:59;;;;;;;7.03;4.00;;;12.60;99.90;;;;;;5038759;28;20278;-84
2022/04/22 01:17:28;;;;;;;6.50;3.13;;;12.70;99.90;;;;;;5039053;28;20582;-79
2022/04/22 01:19:54;;;;;;;4.50;4.10;;;12.60;99.90;;;;;;5038996;28;20553;-83
2022/04/22 01:22:20;;;;;;;4.78;3.83;;;12.80;99.90;;;;;;5038966;28;20160;-86
2022/04/22 01:24:52;;;;;;;9.65;4.53;;;12.80;99.90;;;;;;5038701;28;20199;-84
2022/04/22 01:27:18;;;;;;;4.50;3.85;;;12.70;99.90;;;;;;5037591;28;20251;-87
2022/04/22 01:29:44;;;;;;;7.50;4.38;;;12.70;99.90;;;;;;5038931;28;20160;-82
2022/04/22 01:32:10;;;;;;;4.82;4.13;;;12.50;99.90;;;;;;5036719;28;20164;-80
2022/04/22 01:34:37;;;;;;;5.10;3.72;;;12.50;99.90;;;;;;5035638;28;20218;-86
2022/04/22 01:37:04;;;;;;;4.78;4.35;;;12.60;99.90;;;;;;5035351;28;20168;-81
2022/04/22 01:39:30;;;;;;;9.77;4.57;;;12.60;99.90;;;;;;5035488;28;20599;-82
2022/04/22 01:41:56;;;;;;;5.38;4.70;;;12.50;99.90;;;;;;5035684;28;20175;-82
2022/04/22 01:44:21;;;;;;;4.97;4.47;;;12.40;99.90;;;;;;5050980;28;20203;-85
2022/04/22 01:46:47;;;;;;;5.18;4.45;;;12.40;99.90;;;;;;5035639;28;20164;-80
2022/04/22 01:49:13;;;;;;;5.35;4.22;;;12.40;99.90;;;;;;5035412;28;20575;-80
2022/04/22 01:51:39;;;;;;;5.30;4.30;;;12.40;99.90;;;;;;5035417;28;20168;-82
2022/04/22 01:54:04;;;;;;;13.48;5.20;;;12.30;99.90;;;;;;5035587;28;20200;-80
2022/04/22 01:56:30;;;;;;;5.22;4.63;;;12.30;99.90;;;;;;5035616;28;20680;-84
2022/04/22 01:58:56;;;;;;;6.60;4.90;;;12.20;99.90;;;;;;5035226;28;20206;-84
2022/04/22 02:01:21;;;;;;;6.43;5.13;;;12.30;99.90;;;;;;5035454;28;20160;-83
2022/04/22 02:03:47;;;;;;;5.32;4.72;;;12.30;99.90;;;;;;5035233;28;20655;-84
2022/04/22 02:06:12;;;;;;;10.05;5.63;;;12.10;99.90;;;;;;5035331;28;20524;-87
2022/04/22 02:08:38;;;;;;;8.82;5.38;;;12.00;99.90;;;;;;5035396;28;20332;-79
2022/04/22 02:11:04;;;;;;;6.22;5.63;;;11.90;99.90;;;;;;5035086;28;20168;-83
2022/04/22 02:13:36;;;;;;;6.07;4.80;;;12.00;99.90;;;;;;5034799;28;20187;-82
2022/04/22 02:16:03;;;;;;;12.40;5.75;;;12.00;99.90;;;;;;5035243;28;20616;-84
2022/04/22 02:18:29;;;;;;;6.13;5.35;;;12.10;99.90;;;;;;5035259;28;20258;-87
2022/04/22 02:20:56;;;;;;;7.03;5.57;;;11.90;99.90;;;;;;5035012;28;20168;-80
2022/04/22 02:23:21;;;;;;;10.73;4.90;;;11.80;99.90;;;;;;5034639;28;20230;-82
2022/04/22 02:25:47;;;;;;;6.50;5.72;;;11.80;99.90;;;;;;5034775;28;20624;-81
2022/04/22 02:31:11;;;;;;;6.97;4.95;;;11.80;99.90;;;;;;5034661;28;20234;-76
2022/04/22 02:33:41;;;;;;;16.15;5.40;;;11.70;99.90;;;;;;5034331;28;20679;-80
2022/04/22 02:36:08;;;;;;;10.32;6.32;;;11.70;99.90;;;;;;5033989;28;20168;-81
2022/04/22 02:38:35;;;;;;;6.68;5.68;;;11.70;99.90;;;;;;5049408;28;20214;-82
2022/04/22 02:46:29;;;;;;;11.57;6.45;;;11.60;99.90;;;;;;5034656;28;20225;-84
2022/04/22 02:48:59;;;;;;;8.55;6.93;;;11.50;99.90;;;;;;5034232;28;20254;-84
2022/04/22 02:51:26;;;;;;;13.93;6.00;;;11.50;99.90;;;;;;5049498;28;20176;-76
2022/04/22 02:53:52;;;;;;;10.50;6.25;;;11.40;99.90;;;;;;5033836;28;20188;-77
2022/04/22 02:56:22;;;;;;;8.07;6.50;;;11.40;99.90;;;;;;5032454;28;20645;-80
2022/04/22 02:58:48;;;;;;;7.43;6.78;;;11.40;99.90;;;;;;5032277;28;20230;-77
2022/04/22 03:01:15;;;;;;;8.80;6.63;;;11.40;99.90;;;;;;5033885;28;20171;-78
2022/04/22 03:03:42;;;;;;;7.63;6.72;;;11.40;99.90;;;;;;5033742;28;20222;-81
2022/04/22 03:06:08;;;;;;;8.23;7.25;;;11.30;99.90;;;;;;5033955;28;20184;-77
2022/04/22 03:08:34;;;;;;;11.25;7.78;;;11.20;99.90;;;;;;5033688;28;20203;-76
2022/04/22 03:11:00;;;;;;;10.20;6.93;;;11.10;99.90;;;;;;5033832;28;20164;-79
2022/04/22 03:13:26;;;;;;;15.77;7.80;;;11.20;99.90;;;;;;5033578;28;20698;-80
2022/04/22 03:15:52;;;;;;;10.32;8.73;;;11.10;99.90;;;;;;5033353;28;20226;-81
2022/04/22 03:18:19;;;;;;;10.07;7.75;;;11.10;99.90;;;;;;5033058;28;20230;-76
2022/04/22 03:20:44;;;;;;;9.10;8.20;;;11.10;99.90;;;;;;5033470;28;20508;-78
2022/04/22 03:23:10;;;;;;;15.02;8.57;;;11.10;99.90;;;;;;5033636;28;20190;-80
2022/04/22 03:25:36;;;;;;;8.55;7.75;;;11.10;99.90;;;;;;5033391;28;20192;-84
2022/04/22 03:28:05;;;;;;;12.35;8.45;;;11.00;99.90;;;;;;5033577;28;20174;-84
2022/04/22 03:30:31;;;;;;;11.52;8.27;;;10.90;99.90;;;;;;5033483;28;20210;-81
2022/04/22 03:32:57;;;;;;;11.38;8.73;;;10.80;99.90;;;;;;5033512;28;20684;-78
2022/04/22 03:35:22;;;;;;;11.00;8.88;;;10.60;99.90;;;;;;5033412;28;20274;-81
2022/04/22 03:37:48;;;;;;;11.77;8.48;;;10.60;99.90;;;;;;5032758;28;20616;-84
2022/04/22 03:40:14;;;;;;;9.95;8.68;;;10.60;99.90;;;;;;5033278;28;20617;-78
2022/04/22 03:42:41;;;;;;;11.98;8.75;;;10.50;99.90;;;;;;5033588;28;20644;-76
2022/04/22 03:45:07;;;;;;;12.95;9.95;;;10.60;99.90;;;;;;5032941;28;20651;-82
2022/04/22 03:47:32;;;;;;;11.88;9.23;;;10.50;99.90;;;;;;5033148;28;20205;-81
2022/04/22 03:49:58;;;;;;;11.65;9.88;;;10.50;99.90;;;;;;5033192;28;20192;-80
2022/04/22 03:52:24;;;;;;;12.20;9.65;;;10.40;99.90;;;;;;5033105;28;20171;-83
2022/04/22 03:54:49;;;;;;;12.77;9.40;;;10.50;99.90;;;;;;5033139;28;20196;-77
2022/04/22 03:59:59;;;;;;;16.92;10.23;;;10.50;99.90;;;;;;5032908;28;20663;-80
2022/04/22 04:02:25;;;;;;;15.20;10.02;;;10.50;99.90;;;;;;5032925;28;20160;-85
2022/04/22 04:04:50;;;;;;;11.27;9.70;;;10.20;99.90;;;;;;5032770;28;20513;-77
2022/04/22 04:07:16;;;;;;;15.77;10.88;;;10.30;99.90;;;;;;5032786;28;20674;-78
2022/04/22 04:17:55;;;;;;;20.55;10.95;;;10.40;99.90;;;;;;5033348;28;20205;-83
2022/04/22 04:23:14;;;;;;;11.85;10.65;;;10.40;99.90;;;;;;5032752;28;20182;-85
2022/04/22 04:25:40;;;;;;;16.70;11.27;;;10.40;99.90;;;;;;5032622;28;20642;-82
2022/04/22 04:28:09;;;;;;;11.98;10.80;;;10.30;99.90;;;;;;5032358;28;20172;-80
2022/04/22 04:30:36;;;;;;;14.40;11.18;;;10.30;99.90;;;;;;5032760;28;20164;-81
2022/04/22 04:33:02;;;;;;;14.38;11.77;;;10.30;99.90;;;;;;5032722;28;20537;-81
2022/04/22 04:35:28;;;;;;;14.50;11.60;;;10.20;99.90;;;;;;5032524;28;20188;-83
2022/04/22 04:37:53;;;;;;;13.30;10.95;;;10.00;99.90;;;;;;5032347;28;20618;-86
2022/04/22 04:40:19;;;;;;;16.45;10.68;;;10.00;99.90;;;;;;5032541;28;20172;-83
2022/04/22 04:42:44;;;;;;;17.67;13.40;;;10.00;99.90;;;;;;5032374;28;20176;-79
2022/04/22 04:45:10;;;;;;;16.13;12.13;;;10.10;99.90;;;;;;5032303;28;20222;-78
2022/04/22 04:47:42;;;;;;;17.40;12.77;;;10.20;99.90;;;;;;5032050;28;20599;-77
2022/04/22 04:50:09;;;;;;;14.75;12.60;;;10.10;99.90;;;;;;5032364;28;20266;-78
2022/04/22 04:52:36;;;;;;;13.93;11.88;;;10.00;99.90;;;;;;5047702;28;20214;-81
2022/04/22 04:55:06;;;;;;;14.95;12.55;;;10.00;99.90;;;;;;5031970;28;20192;-85
2022/04/22 04:57:31;;;;;;;22.08;12.65;;;10.10;99.90;;;;;;5032189;28;20610;-84
2022/04/22 04:59:57;;;;;;;16.85;13.15;;;10.20;99.90;;;;;;5031927;28;20206;-81
2022/04/22 05:02:22;;;;;;;17.05;13.57;;;10.10;99.90;;;;;;5032274;28;20160;-77
2022/04/22 05:04:48;;;;;;;17.77;13.35;;;10.10;99.90;;;;;;5032110;28;20192;-77
2022/04/22 05:07:13;;;;;;;17.92;13.38;;;10.00;99.90;;;;;;5031609;28;20168;-78
2022/04/22 05:09:39;;;;;;;17.95;13.77;;;10.00;99.90;;;;;;5035561;28;20543;-78
2022/04/22 05:12:05;;;;;;;17.60;13.32;;;10.20;99.90;;;;;;5035394;28;20535;-78
2022/04/22 05:14:31;;;;;;;15.55;13.65;;;10.30;99.90;;;;;;5035190;28;20215;-80
2022/04/22 05:16:56;;;;;;;20.35;14.05;;;10.50;99.90;;;;;;5035790;28;20559;-77
2022/04/22 05:19:23;;;;;;;25.15;14.35;;;10.60;99.90;;;;;;5036125;28;20739;-81
2022/04/22 05:21:49;;;;;;;19.90;13.20;;;10.60;99.90;;;;;;5035212;28;20172;-77
2022/04/22 05:24:15;;;;;;;17.60;12.77;;;10.50;99.90;;;;;;5035482;28;20187;-81
2022/04/22 05:26:41;;;;;;;17.35;14.38;;;10.40;99.90;;;;;;5035670;28;20168;-82
2022/04/22 05:32:36;;;;;;;20.42;13.70;;;10.40;99.90;;;;;;5040831;23;20212;-80
2022/04/22 05:34:37;;;;;;;35.40;13.80;;;10.20;99.90;;;;;;5016254;28;20679;-79
2022/04/22 05:37:03;;;;;;;28.80;14.27;;;10.30;99.90;;;;;;5016359;28;20176;-84
2022/04/22 05:39:28;;;;;;;25.38;13.90;;;10.40;99.90;;;;;;5031699;28;20299;-83
2022/04/22 05:41:54;;;;;;;27.70;14.45;;;10.50;99.90;;;;;;5016386;28;20589;-85
2022/04/22 05:44:20;;;;;;;18.45;14.15;;;10.50;99.90;;;;;;5015825;28;20570;-84
2022/04/22 05:46:45;;;;;;;25.48;13.95;;;10.50;99.90;;;;;;5015919;28;20231;-82
2022/04/22 05:49:11;;;;;;;24.60;14.48;;;10.50;99.90;;;;;;5014377;28;20176;-79
2022/04/22 05:51:36;;;;;;;21.10;13.50;;;10.50;99.90;;;;;;5016024;28;20193;-80
2022/04/22 05:54:02;;;;;;;30.02;14.73;;;10.60;99.90;;;;;;5015817;28;20184;-81
2022/04/22 05:56:29;;;;;;;29.58;14.57;;;10.70;99.90;;;;;;5015118;28;20172;-82
2022/04/22 05:58:55;;;;;;;15.70;13.45;;;10.70;99.90;;;;;;5016873;28;20289;-81
2022/04/22 06:01:22;;;;;;;15.82;13.00;;;10.70;99.90;;;;;;5016285;28;20284;-82
2022/04/22 06:03:48;;;;;;;20.92;13.25;;;10.70;99.90;;;;;;5015677;28;20239;-85
2022/04/22 06:06:14;;;;;;;26.30;14.60;;;10.70;99.90;;;;;;5016056;28;20230;-80
2022/04/22 06:11:24;;;;;;;31.88;14.70;;;10.80;99.90;;;;;;5016392;28;20660;-83
2022/04/22 06:13:49;;;;;;;28.95;14.38;;;11.00;99.90;;;;;;5015465;28;20208;-83
2022/04/22 06:16:15;;;;;;;25.30;13.40;;;11.10;99.90;;;;;;5015653;28;20211;-84
2022/04/22 06:18:41;;;;;;;20.25;14.02;;;11.20;99.90;;;;;;5016332;28;20592;-83
2022/04/22 06:21:06;;;;;;;14.90;11.68;;;11.20;99.90;;;;;;5015911;28;20179;-83
2022/04/22 06:23:34;;;;;;;25.23;12.35;;;11.10;99.90;;;;;;5015177;28;20171;-80
2022/04/22 06:25:59;;;;;;;18.00;12.43;;;11.20;99.90;;;;;;5015636;28;20176;-84
2022/04/22 06:28:25;;;;;;;17.33;11.82;;;11.40;99.90;;;;;;5016024;28;20207;-83
2022/04/22 06:30:51;;;;;;;20.00;11.32;;;11.40;99.90;;;;;;5015846;28;20229;-81
2022/04/22 06:33:18;;;;;;;16.15;11.93;;;11.30;99.90;;;;;;5016325;28;20188;-86
2022/04/22 06:35:44;;;;;;;13.70;12.07;;;11.40;99.90;;;;;;5015078;28;20192;-83
2022/04/22 06:38:15;;;;;;;16.23;11.35;;;11.70;99.90;;;;;;5015535;28;20239;-79
2022/04/22 06:46:09;;;;;;;14.55;12.05;;;11.60;99.90;;;;;;5015607;28;20187;-79
2022/04/22 06:48:35;;;;;;;27.20;11.77;;;11.60;99.90;;;;;;5014999;28;20164;-82
2022/04/22 06:51:06;;;;;;;16.60;10.80;;;11.60;99.90;;;;;;5013610;28;20230;-79
2022/04/22 06:53:33;;;;;;;27.73;12.00;;;11.50;99.90;;;;;;5014509;28;20185;-80
2022/04/22 06:56:00;;;;;;;14.27;10.98;;;11.60;99.90;;;;;;5014642;28;20581;-78
2022/04/22 06:58:29;;;;;;;12.05;10.85;;;11.70;99.90;;;;;;5014576;28;20215;-80
2022/04/22 07:00:54;;;;;;;13.30;11.35;;;11.90;99.90;;;;;;5014206;28;20164;-81
2022/04/22 07:03:20;;;;;;;14.63;11.07;;;12.00;99.90;;;;;;5016080;28;20175;-83
2022/04/22 07:05:49;;;;;;;16.88;11.40;;;12.20;99.90;;;;;;5014348;28;20160;-82
2022/04/22 07:08:17;;;;;;;20.33;10.00;;;12.20;99.90;;;;;;5011626;28;20168;-83
2022/04/22 07:10:44;;;;;;;14.02;10.77;;;12.30;99.90;;;;;;5016410;28;20259;-81
2022/04/22 07:13:10;;;;;;;25.70;11.40;;;12.10;99.90;;;;;;5016539;28;20193;-81
2022/04/22 07:15:37;;;;;;;14.77;10.98;;;12.00;99.90;;;;;;5015441;28;20255;-82
2022/04/22 07:18:03;;;;;;;12.25;10.65;;;12.00;99.90;;;;;;5014418;28;20196;-79
2022/04/22 07:20:29;;;;;;;15.82;11.52;;;12.00;99.90;;;;;;5032510;28;20189;-83
2022/04/22 07:22:55;;;;;;;22.40;11.80;;;12.20;99.90;;;;;;5032278;28;20227;-84
2022/04/22 07:25:21;;;;;;;24.20;11.70;;;12.30;99.90;;;;;;5016880;28;20242;-86
2022/04/22 07:27:48;;;;;;;14.23;10.63;;;12.40;99.90;;;;;;5016646;28;20268;-85
2022/04/22 07:30:17;;;;;;;12.50;11.20;;;12.50;99.90;;;;;;5015697;28;20216;-82
2022/04/22 07:32:47;;;;;;;20.27;10.88;;;12.50;99.90;;;;;;5016532;28;20168;-86
2022/04/22 07:35:14;;;;;;;17.15;11.10;;;12.50;99.90;;;;;;5017117;28;20215;-85
2022/04/22 07:37:45;;;;;;;19.63;10.98;;;12.50;99.90;;;;;;5015556;28;20676;-82
2022/04/22 07:40:12;;;;;;;12.63;11.00;;;12.60;99.90;;;;;;5016063;28;20258;-84
2022/04/22 07:42:40;;;;;;;24.80;12.15;;;12.70;99.90;;;;;;5024665;28;20187;-81
2022/04/22 07:47:52;;;;;;;19.63;10.60;;;12.90;99.90;;;;;;5015533;28;20188;-78
2022/04/22 07:50:18;;;;;;;17.40;10.55;;;12.90;99.90;;;;;;5017000;28;20180;-79
2022/04/22 07:52:45;;;;;;;37.28;11.02;;;12.90;99.90;;;;;;5017513;28;20165;-81
2022/04/22 07:55:13;;;;;;;23.55;11.60;;;13.00;99.90;;;;;;5031091;28;20251;-79
2022/04/22 07:57:41;;;;;;;18.35;11.55;;;13.10;99.90;;;;;;5019739;28;20169;-82
2022/04/22 08:00:08;;;;;;;23.92;12.32;;;13.20;99.90;;;;;;5044791;28;20193;-77
2022/04/22 08:02:34;;;;;;;13.32;10.98;;;13.40;99.90;;;;;;5016950;28;20161;-78
2022/04/22 08:05:00;;;;;;;17.02;11.43;;;13.70;99.90;;;;;;5015533;28;20199;-78
2022/04/22 08:07:26;;;;;;;15.50;10.55;;;13.90;99.90;;;;;;5014358;28;20214;-81
2022/04/22 08:09:52;;;;;;;18.20;11.07;;;13.80;99.90;;;;;;5014726;28;20588;-80
2022/04/22 08:12:21;;;;;;;27.98;10.63;;;13.80;99.90;;;;;;5013238;28;20187;-78
2022/04/22 08:14:47;;;;;;;19.75;11.85;;;13.70;99.90;;;;;;5029093;28;20196;-78
2022/04/22 08:17:12;;;;;;;16.33;11.00;;;13.70;99.90;;;;;;5025919;28;20180;-79
2022/04/22 08:19:39;;;;;;;17.20;11.90;;;13.90;99.90;;;;;;4993848;28;20311;-81
2022/04/22 08:22:05;;;;;;;18.55;11.77;;;13.80;99.90;;;;;;5008665;28;20177;-78
2022/04/22 08:24:31;;;;;;;16.95;11.93;;;13.90;99.90;;;;;;5009891;28;20196;-79
2022/04/22 08:26:58;;;;;;;16.05;11.77;;;14.10;99.90;;;;;;5013222;28;20168;-78
2022/04/22 08:29:24;;;;;;;39.03;13.57;;;14.30;99.90;;;;;;5012980;28;20196;-85
2022/04/22 08:31:52;;;;;;;16.40;10.93;;;14.40;99.90;;;;;;5013212;28;20164;-77
2022/04/22 08:34:19;;;;;;;15.55;11.73;;;14.40;99.90;;;;;;5013657;28;20666;-77
2022/04/22 08:36:46;;;;;;;15.93;11.57;;;14.70;99.90;;;;;;5011595;28;20207;-81
2022/04/22 08:39:12;;;;;;;25.13;12.60;;;14.70;99.90;;;;;;5012676;28;20676;-83
2022/04/22 08:41:40;;;;;;;18.08;12.27;;;14.90;99.90;;;;;;5029734;28;20397;-78
2022/04/22 08:44:07;;;;;;;24.20;12.70;;;14.80;99.90;;;;;;5017638;28;20726;-77
2022/04/22 08:52:03;;;;;;;29.58;11.90;;;14.80;99.90;;;;;;5016654;28;20234;-79
2022/04/22 08:54:30;;;;;;;15.02;12.10;;;15.00;99.90;;;;;;5015932;28;20212;-78
2022/04/22 08:56:56;;;;;;;27.95;11.75;;;14.90;99.90;;;;;;5016378;28;20633;-77
2022/04/22 08:59:25;;;;;;;13.77;11.07;;;15.00;99.90;;;;;;5016014;28;20221;-80
2022/04/22 09:01:51;;;;;;;19.23;11.00;;;15.00;99.90;;;;;;5028855;28;20171;-79
2022/04/22 09:04:19;;;;;;;16.08;11.70;;;14.70;99.90;;;;;;5032298;28;20216;-77
2022/04/22 09:06:47;;;;;;;18.50;12.10;;;14.50;99.90;;;;;;5031004;28;20239;-77
2022/04/22 09:09:13;;;;;;;21.58;12.32;;;14.60;99.90;;;;;;5023125;28;20184;-77
2022/04/22 09:11:43;;;;;;;19.10;12.23;;;14.70;99.90;;;;;;5011097;28;20177;-77
2022/04/22 09:14:08;;;;;;;22.63;12.18;;;14.90;99.90;;;;;;5023746;28;20247;-81
2022/04/22 09:16:37;;;;;;;14.80;12.25;;;15.00;99.90;;;;;;5017201;28;20168;-78
2022/04/22 09:19:03;;;;;;;23.05;11.80;;;15.30;99.90;;;;;;5016121;28;20220;-78
2022/04/22 09:21:32;;;;;;;22.83;11.00;;;15.50;99.90;;;;;;5017445;28;20192;-78
2022/04/22 09:24:13;;;;;;;11.32;10.20;;;15.60;99.90;;;;;;5017402;28;20192;-77
2022/04/22 09:26:39;;;;;;;17.67;10.82;;;16.10;99.90;;;;;;5016018;28;20230;-78
2022/04/22 09:29:06;;;;;;;17.17;11.10;;;16.60;99.90;;;;;;5015647;28;20188;-80
2022/04/22 09:31:49;;;;;;;17.90;11.18;;;16.90;99.90;;;;;;5014507;28;20164;-87
2022/04/22 09:34:31;;;;;;;13.68;11.10;;;17.20;99.90;;;;;;5018082;28;20188;-85
2022/04/22 09:42:57;;;;;;;12.18;10.68;;;17.40;99.90;;;;;;5019014;28;20315;-89
2022/04/22 09:45:35;;;;;;;16.50;11.35;;;16.80;99.90;;;;;;5017663;28;20238;-83
2022/04/22 09:48:01;;;;;;;18.35;10.82;;;16.70;99.90;;;;;;5019836;28;20168;-82
2022/04/22 09:50:44;;;;;;;11.77;10.32;;;16.60;99.90;;;;;;5017859;28;20175;-83
2022/04/22 09:53:13;;;;;;;14.75;11.60;;;16.40;99.90;;;;;;5017245;28;20173;-80
2022/04/22 09:55:53;;;;;;;12.75;11.05;;;16.10;99.90;;;;;;5016309;28;20200;-83
2022/04/22 09:58:28;;;;;;;12.75;10.38;;;16.20;99.90;;;;;;5018288;28;20188;-89
2022/04/22 10:01:00;;;;;;;20.40;10.48;;;15.90;99.90;;;;;;5017813;28;20609;-87
2022/04/22 10:03:36;;;;;;;13.73;9.75;;;16.00;99.90;;;;;;5017809;28;20161;-81
2022/04/22 10:06:03;;;;;;;10.50;9.07;;;16.00;99.90;;;;;;5017033;28;20192;-84
2022/04/22 10:08:36;;;;;;;11.35;8.95;;;16.20;99.90;;;;;;5033071;28;20183;-85
2022/04/22 10:11:04;;;;;;;10.52;8.27;;;16.00;99.90;;;;;;5017868;28;20168;-87
2022/04/22 10:13:39;;;;;;;14.70;7.32;;;15.90;99.90;;;;;;5017986;28;20575;-84
2022/04/22 10:16:08;;;;;;;10.30;8.77;;;15.80;99.90;;;;;;5017802;28;20203;-87
2022/04/22 10:18:35;;;;;;;15.18;8.18;;;15.80;99.90;;;;;;5016578;28;20299;-82
2022/04/22 10:21:01;;;;;;;8.70;7.18;;;15.60;99.90;;;;;;5016739;28;20693;-81
2022/04/22 10:23:27;;;;;;;9.60;6.82;;;15.70;99.90;;;;;;5018183;28;20172;-86
2022/04/22 10:25:53;;;;;;;6.22;5.60;;;15.90;99.90;;;;;;5017738;28;20637;-88
2022/04/22 10:28:19;;;;;;;8.38;5.28;;;15.90;99.90;;;;;;5016833;28;20164;-89
2022/04/22 10:30:47;;;;;;;15.38;5.28;;;16.00;99.90;;;;;;5016025;28;20192;-79
2022/04/22 10:33:13;;;;;;;9.43;5.55;;;16.20;99.90;;;;;;5017276;28;20251;-84
2022/04/22 10:35:40;;;;;;;6.75;6.15;;;16.40;99.90;;;;;;5017081;28;20224;-86
2022/04/22 10:38:30;;;;;;;10.68;5.60;;;16.30;99.90;;;;;;5016771;28;20247;-88
2022/04/22 10:40:59;;;;;;;14.50;4.85;;;16.40;99.90;;;;;;5009780;28;20187;-81
2022/04/22 10:43:26;;;;;;;13.52;4.75;;;16.50;99.90;;;;;;5016262;28;20164;-86
2022/04/22 10:48:39;;;;;;;5.82;5.22;;;16.40;99.90;;;;;;5016221;28;20176;-86
2022/04/22 10:51:07;;;;;;;9.95;6.70;;;16.40;99.90;;;;;;5016852;28;20260;-83
2022/04/22 10:53:43;;;;;;;7.90;6.15;;;16.30;99.90;;;;;;5016173;28;20581;-84
2022/04/22 10:56:28;;;;;;;10.80;6.97;;;15.90;99.90;;;;;;5016841;28;20260;-85
2022/04/22 10:59:15;;;;;;;9.77;6.68;;;15.70;99.90;;;;;;5016479;28;20649;-83
2022/04/22 11:01:42;;;;;;;13.75;6.90;;;15.50;99.90;;;;;;5016214;28;20288;-77
2022/04/22 11:04:30;;;;;;;11.15;6.75;;;15.30;99.90;;;;;;5016102;28;20180;-87
2022/04/22 11:06:56;;;;;;;18.42;7.45;;;15.30;99.90;;;;;;5015853;28;20189;-76
2022/04/22 11:09:31;;;;;;;7.32;6.38;;;15.30;99.90;;;;;;5016465;28;20589;-87
2022/04/22 11:11:58;;;;;;;12.75;7.53;;;15.40;99.90;;;;;;5017755;28;20179;-88
2022/04/22 11:14:26;;;;;;;13.40;6.63;;;15.40;99.90;;;;;;5015623;28;20215;-76
2022/04/22 11:16:55;;;;;;;12.65;7.03;;;15.50;99.90;;;;;;5017915;28;20633;-84
2022/04/22 11:19:21;;;;;;;13.82;7.55;;;15.70;99.90;;;;;;5017983;28;20204;-79
2022/04/22 11:21:55;;;;;;;8.93;6.72;;;15.70;99.90;;;;;;5016500;28;20179;-78
2022/04/22 11:24:29;;;;;;;11.07;7.78;;;15.90;99.90;;;;;;5017838;28;20188;-80
2022/04/22 11:27:06;;;;;;;13.15;7.80;;;15.90;99.90;;;;;;5017101;28;20192;-81
2022/04/22 11:29:32;;;;;;;11.55;8.77;;;15.70;99.90;;;;;;5014925;28;20188;-81
2022/04/22 11:32:10;;;;;;;9.25;8.35;;;15.80;99.90;;;;;;5015198;28;20633;-81
2022/04/22 11:35:05;;;;;;;10.00;8.50;;;15.90;99.90;;;;;;5014846;28;20584;-79
2022/04/22 11:37:30;;;;;;;15.07;9.93;;;15.90;99.90;;;;;;5016229;28;20255;-78
2022/04/22 11:39:56;;;;;;;20.50;10.18;;;15.60;99.90;;;;;;5016458;28;20703;-86
2022/04/22 11:42:22;;;;;;;15.48;8.85;;;15.50;99.90;;;;;;5016048;28;20168;-89
2022/04/22 11:45:11;;;;;;;11.57;8.65;;;15.50;99.90;;;;;;5016050;28;20207;-87
2022/04/22 11:47:37;;;;;;;7.35;6.53;;;15.40;99.90;;;;;;5017492;28;20172;-81
2022/04/22 11:50:03;;;;;;;7.22;6.53;;;15.30;99.90;;;;;;5016559;28;20505;-87
2022/04/22 11:52:30;;;;;;;16.75;7.55;;;15.30;99.90;;;;;;5017160;28;20198;-77
2022/04/22 11:55:04;;;;;;;11.75;8.43;;;15.40;99.90;;;;;;5015933;28;20212;-88
2022/04/22 11:57:39;;;;;;;7.97;7.28;;;15.40;99.90;;;;;;5016184;28;20636;-83
2022/04/22 12:05:49;;;;;;;15.35;8.85;;;15.80;99.90;;;;;;5014740;28;20274;-83
2022/04/22 12:08:15;;;;;;;8.75;7.88;;;16.30;99.90;;;;;;5015505;28;20188;-76
2022/04/22 12:10:45;;;;;;;10.38;6.90;;;16.30;99.90;;;;;;5012549;28;20247;-83
2022/04/22 12:13:13;;;;;;;7.90;7.20;;;16.60;99.90;;;;;;5012433;28;20267;-77
2022/04/22 12:15:43;;;;;;;8.35;7.55;;;17.00;99.90;;;;;;5013303;28;20192;-82
2022/04/22 12:18:29;;;;;;;7.60;6.90;;;17.10;99.90;;;;;;5014338;28;20625;-85
2022/04/22 12:20:56;;;;;;;7.75;7.10;;;17.10;99.90;;;;;;5014697;28;20173;-83
2022/04/22 12:23:22;;;;;;;12.15;6.97;;;17.00;99.90;;;;;;5013697;28;20210;-79
2022/04/22 12:25:56;;;;;;;11.90;6.05;;;16.90;99.90;;;;;;5013638;28;20187;-83
2022/04/22 12:28:22;;;;;;;8.52;6.78;;;17.10;99.90;;;;;;5013468;28;20164;-79
2022/04/22 12:30:48;;;;;;;7.15;6.55;;;17.30;99.90;;;;;;5027890;28;20192;-80
2022/04/22 12:33:19;;;;;;;7.65;6.25;;;17.20;99.90;;;;;;5010590;28;20176;-79
2022/04/22 12:35:46;;;;;;;7.53;6.82;;;17.10;99.90;;;;;;5013233;28;20711;-81
2022/04/22 12:38:13;;;;;;;7.03;6.35;;;17.30;99.90;;;;;;5013447;28;20172;-81
2022/04/22 12:40:49;;;;;;;9.20;7.03;;;17.30;99.90;;;;;;5013723;28;20255;-81
2022/04/22 12:43:27;;;;;;;11.15;6.50;;;17.40;99.90;;;;;;5013447;28;20165;-81
2022/04/22 12:52:22;;;;;;;7.38;6.78;;;17.40;99.90;;;;;;5014807;28;20227;-82
2022/04/22 12:54:48;;;;;;;8.00;7.20;;;17.20;99.90;;;;;;5014906;28;20657;-83
2022/04/22 12:57:24;;;;;;;12.63;6.50;;;17.20;99.90;;;;;;5015577;28;20175;-76
2022/04/22 12:59:54;;;;;;;7.32;6.47;;;17.10;99.90;;;;;;5012496;28;20212;-81
2022/04/22 13:02:26;;;;;;;8.00;6.72;;;17.20;99.90;;;;;;5014486;28;20177;-83
2022/04/22 13:04:56;;;;;;;6.18;5.68;;;17.00;99.90;;;;;;5015108;28;20185;-90
2022/04/22 13:07:23;;;;;;;10.30;5.63;;;17.10;99.90;;;;;;5016966;28;20184;-90
2022/04/22 13:09:49;;;;;;;6.03;5.43;;;17.10;99.90;;;;;;5019325;28;20169;-91
2022/04/22 13:12:15;;;;;;;9.70;6.90;;;17.50;99.90;;;;;;5017984;28;20169;-89
2022/04/22 13:14:41;;;;;;;8.02;7.13;;;17.60;99.90;;;;;;5013744;28;20200;-81
2022/04/22 13:17:20;;;;;;;12.80;7.18;;;17.30;99.90;;;;;;5015842;28;20193;-81
2022/04/22 13:19:46;;;;;;;15.05;6.75;;;17.20;99.90;;;;;;5034068;28;20613;-79
2022/04/22 13:22:12;;;;;;;17.35;6.93;;;17.10;99.90;;;;;;5051904;28;20184;-81
2022/04/22 13:24:38;;;;;;;11.68;7.35;;;17.20;99.90;;;;;;5035787;28;20191;-81
2022/04/22 13:27:07;;;;;;;8.25;7.45;;;17.20;99.90;;;;;;5023823;28;20180;-82
2022/04/22 13:29:32;;;;;;;8.90;6.55;;;17.10;99.90;;;;;;5019817;28;20223;-82
2022/04/22 13:31:58;;;;;;;17.80;6.93;;;17.20;99.90;;;;;;5020608;28;20215;-82
2022/04/22 13:34:23;;;;;;;9.48;6.57;;;17.40;99.90;;;;;;5017617;28;20188;-82
2022/04/22 13:36:49;;;;;;;8.38;6.38;;;17.40;99.90;;;;;;5017725;28;20219;-80
2022/04/22 13:39:14;;;;;;;9.93;8.15;;;17.50;99.90;;;;;;5016914;28;20212;-80
2022/04/22 13:41:40;;;;;;;8.43;6.55;;;17.40;99.90;;;;;;5017462;28;20167;-80
2022/04/22 13:44:05;;;;;;;8.05;7.35;;;17.30;99.90;;;;;;5016721;28;20224;-82
2022/04/22 13:54:44;;;;;;;12.90;7.15;;;16.90;99.90;;;;;;5015970;28;20202;-81
2022/04/22 13:57:09;;;;;;;13.68;7.43;;;17.00;99.90;;;;;;5016476;28;20563;-78